Time;durP1;ratioP1;P1;durP2;ratioP2;P2;SDS_P1;SDS_P2;PMS_P1;PMS_P2;Temp;Humidity;BMP_temperature;BMP_pressure;BME280_temperature;BME280_humidity;BME280_pressure;Samples;Min_cycle;Max_cycle;Signal;HPM_P1;HPM_P2
2022/05/11 00:01:25;;;;;;;3.13;2.93;;;23.10;53.60;;;;;;5043455;28;20489;-47
2022/05/11 00:03:54;;;;;;;3.13;2.93;;;23.10;53.70;;;;;;5040459;28;20482;-46
2022/05/11 00:06:22;;;;;;;3.10;2.90;;;23.10;53.60;;;;;;5042692;28;20450;-46
2022/05/11 00:08:50;;;;;;;3.30;3.10;;;23.10;53.70;;;;;;5042140;28;21011;-45
2022/05/11 00:11:18;;;;;;;2.80;2.60;;;23.00;53.50;;;;;;5042093;28;20452;-47
2022/05/11 00:13:47;;;;;;;3.60;3.30;;;23.10;53.70;;;;;;5027204;28;20491;-45
2022/05/11 00:16:16;;;;;;;3.40;3.10;;;23.00;53.70;;;;;;5021972;28;20507;-46
2022/05/11 00:18:45;;;;;;;3.67;3.47;;;23.10;53.60;;;;;;5022518;28;20488;-45
2022/05/11 00:21:13;;;;;;;6.93;2.60;;;23.00;53.50;;;;;;5036491;28;20485;-47
2022/05/11 00:23:41;;;;;;;3.30;3.10;;;23.10;53.60;;;;;;5041751;28;20476;-47
2022/05/11 00:26:09;;;;;;;3.50;3.30;;;23.00;53.50;;;;;;5040996;28;20457;-45
2022/05/11 00:28:37;;;;;;;3.43;3.23;;;23.10;54.80;;;;;;5023874;28;20465;-47
2022/05/11 00:31:05;;;;;;;2.87;2.60;;;23.00;53.50;;;;;;5022105;28;20473;-47
2022/05/11 00:33:35;;;;;;;3.20;3.00;;;23.00;53.60;;;;;;5022018;28;20526;-47
2022/05/11 00:36:08;;;;;;;3.07;2.87;;;23.00;53.60;;;;;;5030863;28;20471;-43
2022/05/11 00:38:36;;;;;;;3.20;2.93;;;23.00;53.60;;;;;;5045503;28;20473;-46
2022/05/11 00:41:05;;;;;;;2.83;2.63;;;23.00;53.80;;;;;;5034544;28;22420;-46
2022/05/11 00:43:38;;;;;;;3.23;2.93;;;23.00;53.70;;;;;;5025605;28;20455;-45
2022/05/11 00:46:18;;;;;;;3.07;2.87;;;23.00;53.80;;;;;;5024667;28;20455;-47
2022/05/11 00:51:40;;;;;;;3.33;3.13;;;23.00;53.70;;;;;;5034271;28;20446;-45
2022/05/11 00:54:09;;;;;;;2.83;2.63;;;23.00;53.90;;;;;;5024122;28;20501;-48
2022/05/11 00:56:42;;;;;;;3.03;2.63;;;23.00;53.70;;;;;;5031734;28;20469;-45
2022/05/11 00:59:13;;;;;;;2.60;2.40;;;23.00;53.80;;;;;;5043912;28;20472;-48
2022/05/11 01:01:43;;;;;;;3.17;2.90;;;23.00;53.90;;;;;;5045865;28;20452;-46
2022/05/11 01:04:16;;;;;;;3.47;3.27;;;23.00;53.80;;;;;;5038627;28;20984;-46
2022/05/11 01:06:44;;;;;;;3.40;3.10;;;23.00;53.90;;;;;;5026377;28;20485;-47
2022/05/11 01:09:13;;;;;;;3.00;2.80;;;23.00;53.90;;;;;;5024646;28;20561;-45
2022/05/11 01:11:48;;;;;;;2.90;2.70;;;23.00;54.00;;;;;;5032749;28;20503;-46
2022/05/11 01:14:20;;;;;;;2.93;2.73;;;23.00;54.00;;;;;;5042395;28;21042;-45
2022/05/11 01:16:49;;;;;;;3.13;2.87;;;23.00;54.00;;;;;;5045672;28;20470;-48
2022/05/11 01:19:26;;;;;;;3.40;2.70;;;23.00;54.00;;;;;;5040819;28;20531;-45
2022/05/11 01:21:58;;;;;;;3.03;2.83;;;23.00;54.00;;;;;;5025933;28;20430;-45
2022/05/11 01:24:32;;;;;;;2.93;2.73;;;23.00;54.10;;;;;;5024054;28;20470;-46
2022/05/11 01:27:24;;;;;;;4.43;2.83;;;23.00;54.00;;;;;;5035345;28;20461;-46
2022/05/11 01:29:53;;;;;;;3.40;3.10;;;23.00;53.90;;;;;;5033509;28;20469;-47
2022/05/11 01:32:22;;;;;;;2.90;2.70;;;23.00;54.00;;;;;;5025362;28;20433;-45
2022/05/11 01:34:57;;;;;;;3.17;2.87;;;23.00;54.00;;;;;;5033815;28;20474;-46
2022/05/11 01:37:25;;;;;;;7.13;3.13;;;23.00;54.10;;;;;;5046532;28;20473;-45
2022/05/11 01:39:54;;;;;;;2.93;2.73;;;23.00;54.10;;;;;;5045499;28;20568;-46
2022/05/11 01:42:22;;;;;;;3.33;3.13;;;23.00;54.10;;;;;;5044602;28;20541;-45
2022/05/11 01:44:51;;;;;;;3.20;3.00;;;23.00;54.10;;;;;;5043801;28;20503;-45
2022/05/11 01:47:19;;;;;;;3.10;2.90;;;23.00;54.20;;;;;;5044590;28;20469;-47
2022/05/11 01:49:47;;;;;;;2.80;2.60;;;23.00;54.20;;;;;;5043956;28;20485;-46
2022/05/11 01:52:15;;;;;;;3.57;3.27;;;22.90;54.10;;;;;;5043526;28;20441;-45
2022/05/11 01:54:43;;;;;;;2.97;2.77;;;23.00;54.30;;;;;;5042424;28;20569;-46
2022/05/11 01:57:12;;;;;;;3.37;3.07;;;23.00;54.30;;;;;;5043102;28;20904;-46
2022/05/11 01:59:40;;;;;;;3.03;2.83;;;23.00;54.40;;;;;;5043533;28;20884;-47
2022/05/11 02:02:09;;;;;;;2.50;2.30;;;22.90;54.40;;;;;;5047012;28;21022;-46
2022/05/11 02:10:08;;;;;;;2.70;2.50;;;23.00;54.30;;;;;;5031394;28;21030;-47
2022/05/11 02:12:38;;;;;;;2.70;2.50;;;23.00;54.30;;;;;;5044503;28;20474;-48
2022/05/11 02:15:07;;;;;;;2.80;2.60;;;22.90;54.30;;;;;;5050230;28;20448;-45
2022/05/11 02:17:36;;;;;;;3.30;2.80;;;22.90;54.30;;;;;;5050196;28;20462;-47
2022/05/11 02:20:05;;;;;;;3.17;2.93;;;22.90;54.40;;;;;;5051336;28;20437;-48
2022/05/11 02:22:33;;;;;;;3.20;3.00;;;22.90;54.30;;;;;;5048827;28;20461;-45
2022/05/11 02:25:01;;;;;;;3.53;3.23;;;22.90;55.50;;;;;;5048450;28;20419;-46
2022/05/11 02:27:31;;;;;;;3.03;2.83;;;22.90;54.30;;;;;;5048971;28;20467;-45
2022/05/11 02:30:01;;;;;;;3.40;3.07;;;22.90;54.30;;;;;;5050671;28;20793;-46
2022/05/11 02:32:29;;;;;;;3.53;3.10;;;22.90;54.40;;;;;;5049592;28;20444;-45
2022/05/11 02:35:16;;;;;;;2.87;2.57;;;22.90;54.40;;;;;;5048527;28;20548;-46
2022/05/11 02:37:47;;;;;;;2.87;2.67;;;22.90;54.40;;;;;;5065697;28;21021;-46
2022/05/11 02:40:18;;;;;;;3.10;2.90;;;22.90;54.50;;;;;;5050956;28;20814;-45
2022/05/11 02:42:46;;;;;;;3.20;2.90;;;22.90;54.40;;;;;;5045575;28;20442;-47
2022/05/11 02:45:17;;;;;;;4.13;3.57;;;22.90;54.50;;;;;;5048553;28;20429;-47
2022/05/11 02:47:47;;;;;;;3.33;3.03;;;22.90;54.50;;;;;;5048244;28;20487;-45
2022/05/11 02:50:18;;;;;;;3.63;3.33;;;22.90;54.50;;;;;;5046183;28;20848;-47
2022/05/11 02:52:47;;;;;;;2.87;2.67;;;22.90;54.50;;;;;;5047829;28;20950;-46
2022/05/11 02:55:15;;;;;;;3.00;2.80;;;22.90;54.50;;;;;;5049003;28;21325;-47
2022/05/11 02:57:43;;;;;;;3.03;2.73;;;22.90;54.40;;;;;;5048270;28;20518;-47
2022/05/11 03:00:15;;;;;;;2.80;2.60;;;22.90;54.50;;;;;;5046707;28;20449;-47
2022/05/11 03:02:45;;;;;;;3.13;2.87;;;22.80;54.40;;;;;;5027847;28;20512;-47
2022/05/11 03:05:15;;;;;;;3.07;2.87;;;22.90;54.50;;;;;;5024411;28;20462;-47
2022/05/11 03:07:43;;;;;;;3.23;3.03;;;22.80;54.30;;;;;;5043586;28;20758;-47
2022/05/11 03:10:12;;;;;;;3.60;3.30;;;22.90;54.40;;;;;;5043866;28;20846;-47
2022/05/11 03:12:40;;;;;;;3.30;3.00;;;22.80;54.30;;;;;;5042719;28;20502;-47
2022/05/11 03:15:10;;;;;;;2.87;2.67;;;22.80;54.40;;;;;;5035816;28;20441;-48
2022/05/11 03:17:39;;;;;;;3.00;2.80;;;22.80;54.40;;;;;;5024394;28;21031;-46
2022/05/11 03:20:10;;;;;;;2.73;2.53;;;22.80;54.60;;;;;;5024560;28;20526;-46
2022/05/11 03:22:38;;;;;;;2.90;2.70;;;22.80;54.30;;;;;;5043804;28;20940;-45
2022/05/11 03:25:08;;;;;;;2.90;2.70;;;22.80;54.40;;;;;;5042918;28;20431;-46
2022/05/11 03:27:38;;;;;;;2.93;2.60;;;22.80;54.50;;;;;;5042167;28;20502;-47
2022/05/11 03:30:07;;;;;;;2.90;2.70;;;22.80;54.30;;;;;;5040205;28;20470;-46
2022/05/11 03:35:22;;;;;;;3.00;2.80;;;22.80;54.50;;;;;;5019299;28;20805;-45
2022/05/11 03:37:50;;;;;;;2.80;2.60;;;22.80;54.60;;;;;;5033552;28;20477;-43
2022/05/11 03:40:19;;;;;;;3.57;3.27;;;22.80;54.50;;;;;;5024232;28;20973;-45
2022/05/11 03:42:47;;;;;;;3.53;3.30;;;22.80;54.40;;;;;;5039119;28;20822;-45
2022/05/11 03:45:18;;;;;;;2.90;2.70;;;22.80;54.50;;;;;;5042264;28;20524;-45
2022/05/11 03:47:47;;;;;;;3.03;2.83;;;22.70;54.50;;;;;;5043191;28;20418;-45
2022/05/11 03:50:19;;;;;;;3.27;3.03;;;22.80;54.60;;;;;;5042394;28;20602;-46
2022/05/11 03:52:49;;;;;;;3.17;2.90;;;22.70;54.50;;;;;;5043418;28;20424;-46
2022/05/11 03:55:18;;;;;;;3.00;2.80;;;22.80;54.50;;;;;;5042866;28;20861;-46
2022/05/11 03:57:46;;;;;;;2.60;2.40;;;22.70;54.50;;;;;;5041259;28;20463;-46
2022/05/11 04:00:18;;;;;;;3.10;2.90;;;22.80;54.70;;;;;;5042356;28;20445;-48
2022/05/11 04:02:47;;;;;;;3.03;2.83;;;22.70;54.50;;;;;;5042628;28;20924;-44
2022/05/11 04:05:16;;;;;;;2.90;2.70;;;22.70;54.70;;;;;;5041750;28;20436;-46
2022/05/11 04:07:44;;;;;;;2.93;2.60;;;22.70;54.80;;;;;;5037610;28;20431;-45
2022/05/11 04:10:16;;;;;;;4.13;2.97;;;22.70;54.90;;;;;;5023709;28;20583;-44
2022/05/11 04:12:44;;;;;;;2.67;2.47;;;22.70;54.80;;;;;;5035265;28;20445;-46
2022/05/11 04:15:13;;;;;;;3.03;2.77;;;22.70;54.90;;;;;;5026425;28;20447;-45
2022/05/11 04:17:42;;;;;;;3.33;3.13;;;22.70;54.80;;;;;;5044215;28;20453;-46
2022/05/11 04:20:13;;;;;;;3.47;3.20;;;22.70;54.80;;;;;;5047698;28;20428;-45
2022/05/11 04:22:41;;;;;;;3.60;3.30;;;22.70;54.80;;;;;;5043923;28;20460;-45
2022/05/11 04:25:15;;;;;;;3.60;3.30;;;22.70;54.80;;;;;;5046238;28;20470;-46
2022/05/11 04:27:45;;;;;;;3.63;3.33;;;22.70;54.80;;;;;;5044783;28;20521;-48
2022/05/11 04:30:14;;;;;;;3.10;2.90;;;22.70;54.90;;;;;;5046171;28;20463;-46
2022/05/11 04:32:43;;;;;;;3.00;2.80;;;22.70;54.80;;;;;;5040077;28;20968;-45
2022/05/11 04:35:11;;;;;;;2.83;2.63;;;22.70;54.90;;;;;;5046306;28;20481;-46
2022/05/11 04:37:40;;;;;;;3.10;2.90;;;22.70;55.00;;;;;;5030034;28;20563;-46
2022/05/11 04:40:11;;;;;;;2.93;2.73;;;22.60;54.90;;;;;;5043476;28;20458;-45
2022/05/11 04:42:45;;;;;;;3.73;3.20;;;22.70;55.10;;;;;;5035716;28;20475;-47
2022/05/11 04:45:14;;;;;;;2.83;2.63;;;22.60;55.10;;;;;;5052331;28;20516;-44
2022/05/11 04:47:42;;;;;;;3.40;3.10;;;22.60;55.10;;;;;;5025654;28;20426;-46
2022/05/11 04:50:12;;;;;;;2.80;2.60;;;22.60;55.00;;;;;;5031231;28;20439;-45
2022/05/11 04:52:46;;;;;;;3.30;2.80;;;22.70;55.30;;;;;;5045096;28;20412;-47
2022/05/11 04:55:14;;;;;;;3.40;3.10;;;22.60;55.30;;;;;;5043915;28;20425;-48
2022/05/11 04:57:44;;;;;;;3.50;3.20;;;22.60;55.20;;;;;;5044316;28;20461;-46
2022/05/11 05:00:13;;;;;;;4.43;2.80;;;22.60;55.20;;;;;;5046067;28;20533;-48
2022/05/11 05:02:42;;;;;;;3.47;3.17;;;22.60;55.10;;;;;;5037623;28;20445;-44
2022/05/11 05:05:12;;;;;;;3.87;3.57;;;22.60;55.10;;;;;;5035863;28;21011;-46
2022/05/11 05:07:40;;;;;;;4.53;3.57;;;22.60;55.20;;;;;;5042225;28;20438;-46
2022/05/11 05:10:12;;;;;;;3.90;3.50;;;22.60;55.30;;;;;;5026181;28;20426;-46
2022/05/11 05:12:41;;;;;;;3.23;3.00;;;22.60;55.20;;;;;;5037611;28;20481;-46
2022/05/11 05:15:13;;;;;;;2.97;2.77;;;22.60;55.20;;;;;;5024968;28;20456;-44
2022/05/11 05:17:41;;;;;;;2.97;2.77;;;22.60;55.20;;;;;;5024599;28;20734;-44
2022/05/11 05:20:11;;;;;;;3.60;3.40;;;22.60;55.20;;;;;;5025570;28;20448;-48
2022/05/11 05:22:40;;;;;;;2.73;2.53;;;22.60;55.30;;;;;;5024671;28;20430;-48
2022/05/11 05:25:09;;;;;;;3.30;3.10;;;22.60;55.20;;;;;;5022704;28;20449;-48
2022/05/11 05:27:38;;;;;;;3.30;3.10;;;22.60;55.30;;;;;;5038579;28;20447;-44
2022/05/11 05:32:55;;;;;;;2.70;2.53;;;22.70;55.20;;;;;;5045071;28;20448;-45
2022/05/11 05:35:23;;;;;;;3.43;3.13;;;22.60;55.00;;;;;;5039068;28;20451;-45
2022/05/11 05:37:51;;;;;;;3.33;3.07;;;22.60;54.90;;;;;;5044576;28;20544;-46
2022/05/11 05:40:20;;;;;;;3.63;2.93;;;22.70;54.90;;;;;;5044981;28;20455;-45
2022/05/11 05:42:49;;;;;;;3.33;3.00;;;22.70;54.80;;;;;;5041742;28;20455;-45
2022/05/11 05:45:17;;;;;;;4.87;3.40;;;22.70;54.90;;;;;;5024072;28;20429;-46
2022/05/11 05:47:46;;;;;;;3.60;3.30;;;22.70;54.80;;;;;;5023938;28;20809;-47
2022/05/11 05:50:18;;;;;;;3.27;3.07;;;22.70;54.90;;;;;;5043052;28;20446;-43
2022/05/11 05:52:49;;;;;;;3.10;2.90;;;22.60;54.80;;;;;;5043765;28;20865;-48
2022/05/11 05:55:19;;;;;;;2.97;2.77;;;22.60;54.80;;;;;;5023550;28;20429;-45
2022/05/11 05:57:48;;;;;;;3.40;3.20;;;22.70;54.60;;;;;;5026854;28;20445;-44
2022/05/11 06:00:17;;;;;;;5.07;3.17;;;22.60;54.60;;;;;;5025167;28;20513;-45
2022/05/11 06:02:45;;;;;;;4.40;3.40;;;22.70;54.60;;;;;;5023566;28;20428;-47
2022/05/11 06:05:18;;;;;;;3.63;3.33;;;22.60;54.40;;;;;;5027561;28;20511;-45
2022/05/11 06:07:46;;;;;;;3.90;3.60;;;22.60;54.50;;;;;;5043611;28;20431;-47
2022/05/11 06:10:14;;;;;;;4.60;4.20;;;22.70;54.60;;;;;;5044824;28;20429;-46
2022/05/11 06:12:42;;;;;;;3.10;2.90;;;22.60;54.50;;;;;;5026027;28;20499;-44
2022/05/11 06:15:14;;;;;;;3.50;3.30;;;22.60;54.50;;;;;;5024297;28;20441;-44
2022/05/11 06:17:42;;;;;;;3.33;3.10;;;22.60;54.50;;;;;;5024553;28;20956;-45
2022/05/11 06:20:11;;;;;;;2.97;2.67;;;22.60;54.70;;;;;;5025153;28;20434;-46
2022/05/11 06:22:41;;;;;;;3.20;3.00;;;22.60;54.70;;;;;;5040076;28;21161;-45
2022/05/11 06:25:09;;;;;;;3.50;3.20;;;22.60;54.80;;;;;;5042894;28;20429;-43
2022/05/11 06:27:38;;;;;;;3.00;2.80;;;22.60;54.70;;;;;;5042282;28;20461;-45
2022/05/11 06:30:08;;;;;;;3.30;3.00;;;22.60;54.50;;;;;;5028031;28;21018;-46
2022/05/11 06:32:38;;;;;;;3.23;2.93;;;22.60;54.50;;;;;;5024329;28;20434;-44
2022/05/11 06:35:07;;;;;;;3.63;3.33;;;22.60;54.60;;;;;;5030400;28;20451;-46
2022/05/11 06:37:41;;;;;;;3.40;3.20;;;22.60;54.60;;;;;;5044291;28;20441;-48
2022/05/11 06:40:11;;;;;;;3.00;2.60;;;22.60;54.50;;;;;;5033506;28;20518;-46
2022/05/11 06:42:43;;;;;;;2.90;2.70;;;22.60;54.60;;;;;;5042473;28;20462;-45
2022/05/11 06:45:12;;;;;;;3.00;2.80;;;22.60;54.60;;;;;;5024925;28;20992;-47
2022/05/11 06:47:41;;;;;;;4.53;2.70;;;22.60;54.50;;;;;;5044828;28;20492;-45
2022/05/11 06:50:11;;;;;;;2.50;2.30;;;22.70;54.70;;;;;;5042310;28;20445;-46
2022/05/11 06:52:41;;;;;;;2.43;2.23;;;22.70;54.50;;;;;;5043318;28;20444;-45
2022/05/11 07:00:42;;;;;;;2.77;2.50;;;22.70;54.70;;;;;;5043829;28;20414;-46
2022/05/11 07:03:10;;;;;;;2.20;2.00;;;22.70;54.70;;;;;;5042983;28;20539;-46
2022/05/11 07:05:43;;;;;;;2.37;2.17;;;22.70;54.70;;;;;;5039695;28;20473;-45
2022/05/11 07:08:13;;;;;;;2.40;2.20;;;22.80;54.80;;;;;;5042750;28;20842;-46
2022/05/11 07:10:43;;;;;;;3.13;2.70;;;22.70;54.80;;;;;;5043388;28;20441;-47
2022/05/11 07:13:11;;;;;;;2.50;2.10;;;22.70;54.70;;;;;;5042228;28;20980;-46
2022/05/11 07:15:39;;;;;;;2.70;2.50;;;22.80;54.90;;;;;;5041879;28;20445;-46
2022/05/11 07:18:11;;;;;;;3.67;2.40;;;22.80;54.80;;;;;;5042591;28;20979;-45
2022/05/11 07:20:39;;;;;;;1.90;1.80;;;22.80;54.90;;;;;;5042131;28;20502;-46
2022/05/11 07:23:08;;;;;;;2.37;2.27;;;22.80;54.90;;;;;;5042529;28;20986;-46
2022/05/11 07:25:38;;;;;;;2.70;2.50;;;22.80;54.80;;;;;;5042519;28;20449;-45
2022/05/11 07:28:06;;;;;;;2.40;2.20;;;22.80;54.80;;;;;;5040732;28;20527;-49
2022/05/11 07:30:38;;;;;;;2.30;2.10;;;22.80;54.80;;;;;;5032223;28;20445;-45
2022/05/11 07:33:08;;;;;;;2.23;2.13;;;22.80;54.90;;;;;;5022893;28;20657;-44
2022/05/11 07:35:36;;;;;;;2.63;2.43;;;22.80;54.80;;;;;;5038163;28;20547;-45
2022/05/11 07:38:08;;;;;;;3.60;2.80;;;22.80;54.80;;;;;;5032217;28;20540;-45
2022/05/11 07:40:38;;;;;;;3.03;2.73;;;22.80;54.80;;;;;;5023643;28;20475;-44
2022/05/11 07:43:07;;;;;;;2.47;2.37;;;22.80;54.80;;;;;;5031328;28;20857;-46
2022/05/11 07:45:37;;;;;;;2.60;2.40;;;22.80;54.80;;;;;;5024697;28;20448;-47
2022/05/11 07:48:06;;;;;;;2.43;2.23;;;22.80;54.80;;;;;;5026920;28;20476;-46
2022/05/11 07:50:35;;;;;;;2.60;2.40;;;22.80;54.70;;;;;;5039595;28;20468;-46
2022/05/11 07:53:05;;;;;;;3.00;2.70;;;22.80;54.70;;;;;;5047453;28;20507;-44
2022/05/11 07:55:36;;;;;;;2.67;2.57;;;22.80;54.70;;;;;;5039990;28;20435;-45
2022/05/11 08:00:51;;;;;;;2.87;2.57;;;22.80;54.80;;;;;;5027824;28;20480;-47
2022/05/11 08:03:20;;;;;;;2.27;2.17;;;22.80;55.90;;;;;;5026421;28;20471;-46
2022/05/11 08:05:48;;;;;;;3.37;3.10;;;22.80;54.80;;;;;;5033280;28;20537;-44
2022/05/11 08:08:16;;;;;;;3.00;2.80;;;22.80;54.70;;;;;;5037145;28;20543;-45
2022/05/11 08:10:46;;;;;;;2.73;2.53;;;22.80;54.80;;;;;;5045728;28;20511;-46
2022/05/11 08:13:16;;;;;;;2.10;2.00;;;22.80;54.80;;;;;;5045596;28;20917;-44
2022/05/11 08:15:48;;;;;;;2.93;2.67;;;22.80;54.80;;;;;;5031765;28;20454;-44
2022/05/11 08:18:18;;;;;;;2.57;2.37;;;22.80;54.80;;;;;;5024568;28;20557;-47
2022/05/11 08:20:46;;;;;;;2.90;2.70;;;22.80;54.80;;;;;;5027622;28;20470;-47
2022/05/11 08:23:15;;;;;;;2.87;2.67;;;22.80;54.70;;;;;;5045936;28;20773;-45
2022/05/11 08:25:46;;;;;;;2.77;2.57;;;22.80;54.80;;;;;;5039901;28;20462;-46
2022/05/11 08:28:18;;;;;;;3.07;2.87;;;22.80;54.80;;;;;;5045792;28;21037;-44
2022/05/11 08:33:36;;;;;;;3.63;3.33;;;22.80;54.80;;;;;;5044745;28;20555;-45
2022/05/11 08:36:28;;;;;;;3.33;3.03;;;22.80;54.80;;;;;;5036321;28;20520;-46
2022/05/11 08:38:59;;;;;;;2.97;2.77;;;22.80;54.80;;;;;;5031862;28;20464;-45
2022/05/11 08:41:33;;;;;;;3.27;3.00;;;22.80;54.70;;;;;;5037120;28;20432;-45
2022/05/11 08:44:08;;;;;;;4.73;4.00;;;22.80;54.50;;;;;;5024002;28;20496;-45
2022/05/11 08:46:49;;;;;;;4.40;4.00;;;22.80;54.10;;;;;;5030147;28;20886;-43
2022/05/11 08:49:22;;;;;;;3.87;3.57;;;22.80;54.10;;;;;;5042790;28;20492;-44
2022/05/11 08:51:59;;;;;;;5.50;3.57;;;22.80;54.30;;;;;;5025959;28;20958;-45
2022/05/11 08:54:35;;;;;;;3.63;3.33;;;22.80;54.40;;;;;;5035354;28;20472;-46
2022/05/11 08:57:10;;;;;;;3.87;3.57;;;22.70;54.30;;;;;;5045080;28;20492;-48
2022/05/11 08:59:41;;;;;;;3.90;3.60;;;22.80;54.40;;;;;;5044217;28;20488;-44
2022/05/11 09:02:22;;;;;;;4.20;3.50;;;22.80;54.50;;;;;;5024719;28;20496;-45
2022/05/11 09:04:55;;;;;;;3.93;3.23;;;22.80;54.50;;;;;;5024057;28;20485;-43
2022/05/11 09:07:23;;;;;;;3.67;3.40;;;22.80;54.60;;;;;;5039157;28;20836;-45
2022/05/11 09:09:53;;;;;;;3.47;3.17;;;22.80;54.40;;;;;;5044173;28;20911;-44
2022/05/11 09:12:22;;;;;;;4.67;4.23;;;22.80;54.50;;;;;;5043886;28;20452;-45
2022/05/11 09:14:56;;;;;;;3.97;3.67;;;22.80;54.50;;;;;;5044330;28;20506;-44
2022/05/11 09:17:27;;;;;;;3.53;3.23;;;22.80;54.50;;;;;;5045361;28;20502;-46
2022/05/11 09:20:07;;;;;;;3.70;3.50;;;22.80;54.50;;;;;;5044162;28;20526;-44
2022/05/11 09:22:39;;;;;;;4.00;3.70;;;22.80;54.50;;;;;;5032052;28;20447;-44
2022/05/11 09:25:20;;;;;;;3.70;3.40;;;22.80;54.60;;;;;;5034891;28;20951;-45
2022/05/11 09:27:50;;;;;;;2.90;2.70;;;22.80;54.70;;;;;;5044264;28;20465;-46
2022/05/11 09:30:23;;;;;;;3.73;3.33;;;22.80;54.80;;;;;;5045753;28;20901;-48
2022/05/11 09:32:53;;;;;;;3.40;3.20;;;22.80;54.80;;;;;;5044974;28;20759;-46
2022/05/11 09:35:34;;;;;;;3.90;3.60;;;22.80;54.70;;;;;;5043381;28;20828;-44
2022/05/11 09:38:31;;;;;;;3.80;3.50;;;22.80;54.70;;;;;;5027283;28;20748;-45
2022/05/11 09:41:01;;;;;;;4.40;4.10;;;22.80;54.70;;;;;;5026253;28;20961;-45
2022/05/11 09:43:33;;;;;;;3.70;3.40;;;22.80;54.70;;;;;;5045013;28;20571;-44
2022/05/11 09:46:17;;;;;;;4.10;3.80;;;22.80;54.70;;;;;;5043693;28;20458;-47
2022/05/11 09:48:57;;;;;;;3.90;3.50;;;22.80;54.70;;;;;;5039132;28;21083;-45
2022/05/11 09:51:33;;;;;;;3.70;3.40;;;22.80;54.70;;;;;;5033682;28;21428;-44
2022/05/11 09:54:19;;;;;;;3.30;3.00;;;22.80;54.70;;;;;;5043770;28;20455;-44
2022/05/11 09:56:56;;;;;;;3.60;3.40;;;22.80;54.70;;;;;;5033133;28;20906;-47
2022/05/11 09:59:26;;;;;;;4.07;3.77;;;22.80;54.90;;;;;;5044731;28;21245;-43
2022/05/11 10:02:02;;;;;;;4.20;3.90;;;22.80;54.70;;;;;;5045203;28;20497;-44
2022/05/11 10:04:35;;;;;;;3.50;3.20;;;22.80;54.70;;;;;;5043103;28;20468;-45
2022/05/11 10:07:08;;;;;;;4.10;3.80;;;22.80;54.70;;;;;;5041557;28;20488;-45
2022/05/11 10:09:41;;;;;;;3.70;3.40;;;22.80;54.80;;;;;;5041211;28;21125;-45
2022/05/11 10:12:16;;;;;;;3.80;3.50;;;22.80;54.70;;;;;;5044277;28;20814;-47
2022/05/11 10:23:41;;;;;;;3.53;3.23;;;22.80;54.80;;;;;;5043196;28;20465;-46
2022/05/11 10:26:22;;;;;;;3.67;3.37;;;22.80;54.80;;;;;;5025573;28;20464;-47
2022/05/11 10:29:00;;;;;;;3.73;3.43;;;22.80;54.80;;;;;;5041787;28;20994;-48
2022/05/11 10:31:34;;;;;;;4.73;4.00;;;22.80;54.80;;;;;;5044420;28;20844;-47
2022/05/11 10:34:09;;;;;;;3.53;3.30;;;22.80;54.80;;;;;;5022973;28;20937;-45
2022/05/11 10:36:43;;;;;;;3.37;3.07;;;22.80;55.10;;;;;;5042902;28;20480;-46
2022/05/11 10:39:20;;;;;;;3.43;3.23;;;22.80;54.90;;;;;;5035226;28;20531;-47
2022/05/11 10:41:53;;;;;;;4.00;3.70;;;22.80;55.00;;;;;;5032015;28;20469;-45
2022/05/11 10:44:39;;;;;;;3.60;3.33;;;22.80;54.90;;;;;;5032888;28;20972;-46
2022/05/11 10:47:21;;;;;;;3.33;3.13;;;22.80;55.00;;;;;;5023417;28;20541;-44
2022/05/11 10:50:06;;;;;;;3.97;3.57;;;22.80;55.00;;;;;;5023500;28;20527;-44
2022/05/11 10:52:52;;;;;;;3.20;3.00;;;22.80;55.10;;;;;;5038611;28;20575;-44
2022/05/11 10:55:26;;;;;;;3.50;3.30;;;22.90;55.10;;;;;;5038139;28;20861;-44
2022/05/11 10:58:10;;;;;;;3.00;2.80;;;22.80;55.00;;;;;;5039790;28;20445;-47
2022/05/11 11:00:44;;;;;;;3.30;3.10;;;22.80;55.10;;;;;;5025156;28;20447;-44
2022/05/11 11:03:34;;;;;;;3.83;2.77;;;22.80;55.10;;;;;;5039029;28;20464;-47
2022/05/11 11:09:32;;;;;;;3.73;3.43;;;22.80;55.10;;;;;;5042382;28;20460;-43
2022/05/11 11:12:08;;;;;;;4.23;3.93;;;22.90;55.20;;;;;;5043230;28;20434;-44
2022/05/11 11:14:41;;;;;;;3.80;3.57;;;22.80;55.10;;;;;;5042266;28;20495;-44
2022/05/11 11:17:16;;;;;;;3.80;3.50;;;22.90;55.10;;;;;;5041961;28;20446;-44
2022/05/11 11:19:48;;;;;;;3.63;3.40;;;22.90;55.20;;;;;;5022515;28;20471;-45
2022/05/11 11:22:18;;;;;;;5.30;3.80;;;22.80;55.10;;;;;;5040425;28;21000;-47
2022/05/11 11:25:28;;;;;;;3.93;3.53;;;22.90;55.20;;;;;;5041805;28;20818;-47
2022/05/11 11:28:08;;;;;;;3.93;3.60;;;22.90;55.10;;;;;;5011703;28;21739;-44
2022/05/11 11:30:38;;;;;;;3.50;3.30;;;22.90;55.20;;;;;;5043755;28;20525;-46
2022/05/11 11:33:23;;;;;;;4.03;3.73;;;22.90;55.20;;;;;;5034442;28;20470;-44
2022/05/11 11:35:57;;;;;;;3.50;3.20;;;22.90;55.30;;;;;;5030036;28;20485;-44
2022/05/11 11:38:30;;;;;;;3.33;3.13;;;22.90;55.40;;;;;;5042042;28;20469;-45
2022/05/11 11:41:21;;;;;;;4.17;3.80;;;22.90;55.20;;;;;;5036716;28;20880;-44
2022/05/11 11:43:55;;;;;;;4.90;3.90;;;23.00;55.10;;;;;;5039834;28;20481;-46
2022/05/11 11:46:32;;;;;;;3.67;3.37;;;23.00;54.60;;;;;;5022485;28;20511;-45
2022/05/11 11:49:09;;;;;;;5.67;3.77;;;23.00;54.50;;;;;;5026343;28;20845;-45
2022/05/11 11:51:59;;;;;;;4.07;3.77;;;23.00;54.50;;;;;;5042286;28;20929;-47
2022/05/11 11:54:48;;;;;;;3.77;3.47;;;23.00;54.50;;;;;;5036641;28;20481;-46
2022/05/11 11:57:29;;;;;;;3.93;3.63;;;23.00;54.40;;;;;;5035286;28;20997;-45
2022/05/11 11:59:59;;;;;;;5.33;4.07;;;23.00;54.50;;;;;;5044272;28;20537;-43
2022/05/11 12:02:31;;;;;;;4.57;4.27;;;23.00;54.30;;;;;;5043001;28;20509;-45
2022/05/11 12:05:07;;;;;;;4.73;4.30;;;23.00;54.30;;;;;;5040686;28;20641;-44
2022/05/11 12:16:18;;;;;;;4.40;4.07;;;23.00;54.40;;;;;;5042508;28;20442;-44
2022/05/11 12:18:47;;;;;;;3.23;3.03;;;23.00;54.50;;;;;;5037681;28;20897;-44
2022/05/11 12:21:26;;;;;;;4.20;3.90;;;23.00;54.50;;;;;;5028544;28;20464;-45
2022/05/11 12:23:56;;;;;;;4.73;3.63;;;23.00;54.40;;;;;;5042527;28;20532;-45
2022/05/11 12:26:27;;;;;;;4.00;3.70;;;23.00;54.50;;;;;;5041943;28;20774;-46
2022/05/11 12:29:54;;;;;;;3.67;3.47;;;23.00;54.40;;;;;;5042535;28;20462;-46
2022/05/11 12:31:53;;;;;;;4.03;3.73;;;23.00;54.30;;;;;;5043437;28;20431;-44
2022/05/11 12:34:23;;;;;;;4.00;3.70;;;23.00;54.10;;;;;;5045324;28;20513;-46
2022/05/11 12:36:53;;;;;;;3.60;3.30;;;23.00;54.20;;;;;;5045806;28;20467;-46
2022/05/11 12:39:32;;;;;;;4.43;4.13;;;23.10;54.40;;;;;;5045915;28;20458;-44
2022/05/11 12:42:03;;;;;;;3.70;3.23;;;23.00;54.40;;;;;;5042817;28;20481;-45
2022/05/11 12:44:34;;;;;;;4.73;3.77;;;23.10;54.40;;;;;;5044199;28;20461;-46
2022/05/11 12:47:07;;;;;;;3.53;3.33;;;23.10;54.50;;;;;;5046922;28;20787;-46
2022/05/11 12:49:35;;;;;;;3.33;3.07;;;23.10;54.50;;;;;;5044804;28;20506;-45
2022/05/11 12:52:07;;;;;;;2.90;2.70;;;23.10;54.50;;;;;;5046448;28;20505;-45
2022/05/11 12:54:36;;;;;;;3.60;3.30;;;23.10;54.50;;;;;;5044998;28;20506;-44
2022/05/11 12:57:11;;;;;;;3.63;3.33;;;23.10;54.30;;;;;;5046028;28;20466;-43
2022/05/11 12:59:48;;;;;;;4.23;3.83;;;23.10;54.30;;;;;;5045894;28;20468;-45
2022/05/11 13:02:21;;;;;;;3.60;3.30;;;23.10;54.40;;;;;;5046639;28;20503;-47
2022/05/11 13:04:52;;;;;;;3.40;3.10;;;23.10;54.30;;;;;;5035943;28;21073;-45
2022/05/11 13:07:24;;;;;;;3.63;3.33;;;23.10;52.20;;;;;;5033031;28;20485;-44
2022/05/11 13:09:57;;;;;;;3.80;3.27;;;23.30;52.20;;;;;;5036311;28;20474;-45
2022/05/11 13:12:28;;;;;;;3.70;3.40;;;23.50;49.10;;;;;;5032223;28;20448;-44
2022/05/11 13:15:01;;;;;;;4.13;3.40;;;23.60;49.80;;;;;;5024151;28;20500;-44
2022/05/11 13:17:35;;;;;;;7.03;3.80;;;23.60;50.60;;;;;;5040872;28;20466;-46
2022/05/11 13:20:08;;;;;;;3.50;3.20;;;23.70;51.00;;;;;;5042546;28;20479;-45
2022/05/11 13:22:37;;;;;;;3.30;3.00;;;23.70;51.20;;;;;;5045884;28;20455;-44
2022/05/11 13:25:09;;;;;;;3.10;2.80;;;23.70;51.20;;;;;;5040473;28;20460;-46
2022/05/11 13:27:43;;;;;;;3.70;3.50;;;23.80;51.60;;;;;;5031893;28;20498;-44
2022/05/11 13:30:16;;;;;;;3.40;2.90;;;23.70;51.80;;;;;;5024156;28;20446;-46
2022/05/11 13:32:47;;;;;;;3.47;3.23;;;23.80;52.00;;;;;;5024550;28;20487;-44
2022/05/11 13:35:26;;;;;;;4.87;3.20;;;23.80;51.80;;;;;;5025033;28;20430;-45
2022/05/11 13:37:57;;;;;;;3.40;3.10;;;23.80;51.60;;;;;;5034278;28;21031;-43
2022/05/11 13:40:31;;;;;;;3.50;3.20;;;23.80;51.90;;;;;;5026430;28;20445;-44
2022/05/11 13:43:02;;;;;;;3.43;3.13;;;23.80;51.80;;;;;;5042428;28;20455;-45
2022/05/11 13:45:30;;;;;;;3.50;3.20;;;23.80;51.80;;;;;;5044473;28;20480;-45
2022/05/11 13:48:12;;;;;;;3.70;3.30;;;23.80;51.80;;;;;;5043656;28;20447;-44
2022/05/11 13:50:42;;;;;;;2.67;2.57;;;23.80;52.00;;;;;;5043472;28;20441;-43
2022/05/11 13:53:23;;;;;;;3.63;2.80;;;23.90;51.00;;;;;;5031263;28;20511;-45
2022/05/11 13:56:09;;;;;;;3.40;3.10;;;23.90;51.60;;;;;;5022790;28;20466;-45
2022/05/11 13:58:42;;;;;;;3.53;3.20;;;23.90;51.80;;;;;;5023305;28;20472;-46